createdAt,value
2023-02-25T00:02:07.782Z,21.88
2023-02-25T00:04:35.956Z,25.83
2023-02-25T00:07:04.208Z,18.23
2023-02-25T00:09:34.991Z,21.95
2023-02-25T00:12:07.242Z,19.45
2023-02-25T00:14:37.614Z,20.30
2023-02-25T00:17:06.349Z,24.15
2023-02-25T00:19:34.761Z,21.77
2023-02-25T00:22:03.702Z,26.83
2023-02-25T00:24:32.140Z,23.35
2023-02-25T00:27:02.187Z,24.52
2023-02-25T00:29:33.055Z,31.13
2023-02-25T00:32:01.354Z,24.15
2023-02-25T00:34:31.625Z,25.58
2023-02-25T00:37:04.108Z,22.55
2023-02-25T00:42:19.582Z,26.38
2023-02-25T00:44:49.232Z,30.67
2023-02-25T00:47:18.960Z,23.40
2023-02-25T00:49:48.737Z,34.97
2023-02-25T00:52:17.413Z,24.67
2023-02-25T00:54:46.486Z,29.20
2023-02-25T00:57:15.879Z,26.05
2023-02-25T00:59:50.283Z,29.30
2023-02-25T01:02:24.254Z,27.05
2023-02-25T01:04:52.164Z,22.65
2023-02-25T01:07:23.298Z,23.50
2023-02-25T01:09:51.076Z,23.88
2023-02-25T01:12:23.609Z,23.20
2023-02-25T01:14:51.218Z,17.70
2023-02-25T01:17:23.929Z,18.55
2023-02-25T01:19:55.259Z,20.90
2023-02-25T01:22:26.786Z,24.40
2023-02-25T01:25:00.356Z,24.02
2023-02-25T01:27:32.640Z,17.00
2023-02-25T01:30:00.446Z,27.30
2023-02-25T01:32:28.032Z,11.15
2023-02-25T01:34:57.048Z,20.88
2023-02-25T01:37:26.558Z,21.15
2023-02-25T01:40:01.764Z,17.50
2023-02-25T01:42:37.071Z,17.58
2023-02-25T01:45:20.661Z,17.75
2023-02-25T01:48:00.351Z,21.77
2023-02-25T01:50:34.688Z,19.35
2023-02-25T01:53:06.921Z,16.60
2023-02-25T01:55:39.484Z,21.92
2023-02-25T01:58:12.982Z,23.02
2023-02-25T02:00:43.156Z,25.63
2023-02-25T02:03:18.459Z,24.42
2023-02-25T02:06:01.722Z,20.77
2023-02-25T02:08:29.978Z,25.17
2023-02-25T02:11:02.131Z,19.75
2023-02-25T02:13:39.969Z,25.95
2023-02-25T02:16:29.815Z,24.63
2023-02-25T02:19:00.123Z,26.58
2023-02-25T02:21:39.192Z,22.35
2023-02-25T02:24:29.750Z,24.48
2023-02-25T02:27:01.304Z,23.90
2023-02-25T02:29:59.996Z,20.10
2023-02-25T02:33:12.809Z,22.38
2023-02-25T02:35:59.291Z,23.83
2023-02-25T02:38:42.922Z,28.08
2023-02-25T02:41:26.281Z,27.15
2023-02-25T02:44:03.563Z,27.77
2023-02-25T02:46:55.795Z,21.95
2023-02-25T02:50:08.084Z,22.70
2023-02-25T02:52:43.665Z,20.10
2023-02-25T02:55:29.103Z,23.92
2023-02-25T02:58:07.935Z,24.20
2023-02-25T03:03:39.231Z,19.13
2023-02-25T03:06:22.349Z,17.48
2023-02-25T03:08:58.643Z,18.27
2023-02-25T03:11:26.955Z,28.77
2023-02-25T03:13:58.693Z,17.42
2023-02-25T03:16:59.772Z,26.00
2023-02-25T03:19:48.714Z,20.95
2023-02-25T03:22:27.934Z,20.65
2023-02-25T03:25:36.462Z,17.98
2023-02-25T03:28:29.047Z,19.02
2023-02-25T03:31:26.761Z,18.33
2023-02-25T03:34:11.193Z,19.63
2023-02-25T03:36:45.770Z,19.80
2023-02-25T03:41:57.176Z,15.85
2023-02-25T03:44:29.985Z,19.38
2023-02-25T03:49:59.290Z,29.83
2023-02-25T03:52:28.049Z,20.55
2023-02-25T03:54:57.887Z,19.52
2023-02-25T03:57:30.068Z,21.05
2023-02-25T03:59:59.708Z,31.55
2023-02-25T04:02:33.834Z,21.52
2023-02-25T04:05:04.675Z,21.40
2023-02-25T04:07:39.454Z,19.50
2023-02-25T04:10:11.547Z,14.85
2023-02-25T04:12:45.560Z,26.58
2023-02-25T04:15:14.498Z,21.00
2023-02-25T04:17:42.183Z,20.23
2023-02-25T04:20:11.789Z,27.63
2023-02-25T04:22:39.743Z,16.30
2023-02-25T04:25:11.065Z,23.92
2023-02-25T04:27:39.156Z,26.67
2023-02-25T04:30:08.878Z,25.67
2023-02-25T04:32:41.826Z,27.33
2023-02-25T04:35:13.517Z,23.75
2023-02-25T04:37:43.718Z,24.48
2023-02-25T04:40:19.038Z,27.33
2023-02-25T04:42:48.207Z,22.13
2023-02-25T04:45:16.731Z,25.35
2023-02-25T04:47:44.872Z,24.88
2023-02-25T04:50:13.679Z,22.23
2023-02-25T04:52:44.481Z,28.55
2023-02-25T04:55:12.392Z,25.83
2023-02-25T04:57:42.574Z,30.20
2023-02-25T05:00:19.447Z,25.13
2023-02-25T05:02:48.345Z,24.08
2023-02-25T05:05:16.922Z,22.05
2023-02-25T05:07:44.617Z,24.15
2023-02-25T05:10:17.406Z,23.80
2023-02-25T05:12:45.245Z,22.45
2023-02-25T05:15:13.929Z,21.73
2023-02-25T05:17:43.149Z,15.85
2023-02-25T05:20:18.400Z,24.13
2023-02-25T05:22:46.190Z,23.33
2023-02-25T05:25:18.060Z,27.63
2023-02-25T05:27:46.016Z,30.08
2023-02-25T05:30:34.204Z,29.55
2023-02-25T05:33:03.755Z,22.90
2023-02-25T05:35:32.828Z,24.25
2023-02-25T05:38:01.751Z,30.25
2023-02-25T05:40:33.447Z,25.58
2023-02-25T05:43:14.617Z,24.42
2023-02-25T05:45:49.657Z,25.98
2023-02-25T05:48:23.995Z,25.80
2023-02-25T05:51:04.271Z,26.70
2023-02-25T05:53:35.241Z,24.23
2023-02-25T05:56:10.477Z,33.80
2023-02-25T05:58:44.035Z,23.95
2023-02-25T06:01:18.446Z,25.92
2023-02-25T06:03:49.514Z,26.15
2023-02-25T06:06:28.130Z,27.85
2023-02-25T06:08:56.691Z,23.92
2023-02-25T06:11:29.781Z,20.83
2023-02-25T06:13:58.548Z,31.10
2023-02-25T06:16:39.967Z,23.30
2023-02-25T06:19:10.071Z,34.92
2023-02-25T06:21:50.239Z,27.58
2023-02-25T06:24:23.090Z,22.33
2023-02-25T06:29:19.543Z,27.17
2023-02-25T06:31:48.339Z,31.33
2023-02-25T06:34:22.069Z,27.48
2023-02-25T06:36:50.228Z,23.33
2023-02-25T06:39:19.404Z,28.40
2023-02-25T06:41:47.255Z,23.35
2023-02-25T06:44:22.101Z,24.50
2023-02-25T06:46:53.801Z,24.30
2023-02-25T06:49:25.537Z,30.08
2023-02-25T06:51:53.285Z,27.65
2023-02-25T06:54:24.989Z,26.23
2023-02-25T06:56:53.532Z,18.45
2023-02-25T06:59:22.842Z,23.38
2023-02-25T07:01:59.491Z,22.95
2023-02-25T07:04:35.434Z,21.42
2023-02-25T07:07:03.160Z,22.67
2023-02-25T07:09:32.365Z,25.20
2023-02-25T07:12:08.626Z,28.45
2023-02-25T07:14:39.138Z,21.80
2023-02-25T07:17:18.540Z,22.83
2023-02-25T07:19:51.228Z,25.95
2023-02-25T07:22:26.386Z,24.55
2023-02-25T07:24:57.007Z,25.20
2023-02-25T07:27:25.470Z,19.08
2023-02-25T07:29:55.116Z,18.10
2023-02-25T07:32:27.271Z,21.73
2023-02-25T07:34:56.944Z,16.88
2023-02-25T07:37:24.610Z,14.52
2023-02-25T07:39:59.988Z,13.15
2023-02-25T07:42:30.510Z,16.50
2023-02-25T07:44:59.834Z,15.50
2023-02-25T07:47:28.495Z,18.63
2023-02-25T07:49:55.842Z,16.30
2023-02-25T07:52:26.231Z,17.80
2023-02-25T07:54:53.731Z,15.85
2023-02-25T07:57:21.789Z,21.48
2023-02-25T07:59:51.501Z,20.77
2023-02-25T08:02:24.703Z,22.88
2023-02-25T08:04:52.717Z,14.88
2023-02-25T08:07:21.700Z,16.45
2023-02-25T08:09:49.248Z,15.43
2023-02-25T08:12:16.889Z,18.10
2023-02-25T08:14:45.852Z,30.45
2023-02-25T08:17:16.133Z,15.40
2023-02-25T08:19:43.694Z,16.30
2023-02-25T08:22:12.044Z,26.70
2023-02-25T08:24:40.630Z,19.85
2023-02-25T08:27:11.372Z,23.23
2023-02-25T08:29:39.200Z,26.77
2023-02-25T08:32:07.659Z,23.48
2023-02-25T08:34:35.384Z,23.25
2023-02-25T08:37:02.892Z,26.70
2023-02-25T08:39:31.170Z,30.80
2023-02-25T08:41:58.791Z,22.88
2023-02-25T08:44:26.195Z,34.80
2023-02-25T08:46:56.097Z,27.27
2023-02-25T08:49:26.497Z,23.48
2023-02-25T08:51:55.461Z,26.55
2023-02-25T08:54:23.208Z,29.33
2023-02-25T08:56:55.475Z,31.67
2023-02-25T08:59:22.979Z,25.77
2023-02-25T09:01:52.125Z,23.77
2023-02-25T09:04:23.025Z,26.13
2023-02-25T09:06:53.971Z,23.77
2023-02-25T09:09:22.683Z,23.30
2023-02-25T09:11:58.354Z,29.67
2023-02-25T09:14:30.590Z,23.52
2023-02-25T09:17:02.847Z,24.17
2023-02-25T09:19:30.537Z,20.65
2023-02-25T09:21:57.888Z,19.52
2023-02-25T09:24:30.185Z,23.67
2023-02-25T09:26:58.117Z,24.98
2023-02-25T09:29:25.660Z,23.65
2023-02-25T09:31:55.093Z,22.20
2023-02-25T09:34:22.652Z,20.55
2023-02-25T09:36:51.203Z,9.90
2023-02-25T09:39:18.646Z,11.07
2023-02-25T09:42:09.924Z,13.00
2023-02-25T09:45:00.097Z,16.80
2023-02-25T09:47:34.200Z,14.65
2023-02-25T09:50:21.582Z,16.45
2023-02-25T09:53:11.088Z,10.57
2023-02-25T09:55:46.621Z,14.55
2023-02-25T09:58:51.823Z,17.60
2023-02-25T10:01:42.498Z,14.43
2023-02-25T10:04:57.660Z,23.40
2023-02-25T10:07:35.022Z,20.13
2023-02-25T10:10:17.488Z,22.55
2023-02-25T10:13:18.096Z,23.98
2023-02-25T10:15:58.444Z,23.25
2023-02-25T10:18:48.062Z,22.60
2023-02-25T10:21:36.875Z,21.05
2023-02-25T10:24:23.710Z,26.83
2023-02-25T10:27:07.810Z,18.08
2023-02-25T10:29:46.555Z,18.90
2023-02-25T10:32:23.967Z,12.60
2023-02-25T10:34:54.875Z,18.67
2023-02-25T10:37:30.047Z,12.55
2023-02-25T10:40:00.619Z,14.43
2023-02-25T10:42:29.268Z,15.13
2023-02-25T10:45:09.904Z,13.23
2023-02-25T10:47:40.785Z,15.40
2023-02-25T10:50:38.829Z,5.65
2023-02-25T10:53:18.323Z,7.38
2023-02-25T10:55:53.635Z,5.78
2023-02-25T10:58:48.309Z,7.05
2023-02-25T11:01:21.691Z,7.53
2023-02-25T11:04:03.289Z,5.20
2023-02-25T11:06:33.112Z,6.82
2023-02-25T11:09:02.583Z,12.77
2023-02-25T11:11:37.257Z,8.48
2023-02-25T11:14:16.051Z,10.05
2023-02-25T11:16:45.261Z,8.32
2023-02-25T11:19:25.580Z,9.57
2023-02-25T11:21:54.280Z,10.65
2023-02-25T11:24:35.828Z,8.98
2023-02-25T11:27:06.929Z,9.82
2023-02-25T11:29:38.416Z,8.80
2023-02-25T11:32:15.359Z,9.25
2023-02-25T11:34:50.613Z,8.75
2023-02-25T11:37:36.895Z,9.27
2023-02-25T11:40:21.908Z,10.18
2023-02-25T11:43:05.817Z,8.75
2023-02-25T11:46:00.852Z,10.50
2023-02-25T11:48:41.303Z,12.45
2023-02-25T11:51:30.619Z,12.65
2023-02-25T11:54:19.632Z,11.00
2023-02-25T11:57:11.120Z,12.43
2023-02-25T12:00:02.820Z,10.90
2023-02-25T12:02:38.794Z,10.63
2023-02-25T12:05:45.801Z,10.95
2023-02-25T12:08:33.038Z,6.78
2023-02-25T12:11:29.034Z,10.38
2023-02-25T12:14:30.973Z,6.68
2023-02-25T12:17:37.507Z,10.98
2023-02-25T12:20:26.555Z,7.00
2023-02-25T12:23:17.907Z,9.00
2023-02-25T12:26:08.348Z,7.47
2023-02-25T12:29:07.454Z,9.52
2023-02-25T12:32:14.631Z,10.75
2023-02-25T12:35:16.657Z,11.90
2023-02-25T12:38:06.225Z,11.23
2023-02-25T12:41:04.268Z,12.45
2023-02-25T12:43:54.493Z,7.57
2023-02-25T12:46:53.954Z,10.70
2023-02-25T12:49:22.161Z,10.75
2023-02-25T12:52:19.497Z,9.43
2023-02-25T12:55:14.395Z,14.55
2023-02-25T12:58:10.462Z,10.98
2023-02-25T13:01:13.264Z,11.20
2023-02-25T13:04:00.626Z,12.65
2023-02-25T13:06:43.128Z,13.30
2023-02-25T13:09:15.599Z,12.40
2023-02-25T13:12:24.214Z,9.85
2023-02-25T13:15:25.853Z,6.05
2023-02-25T13:18:12.301Z,12.40
2023-02-25T13:21:04.085Z,12.60
2023-02-25T13:23:56.320Z,14.00
2023-02-25T13:26:48.561Z,6.07
2023-02-25T13:29:52.981Z,7.20
2023-02-25T13:32:27.756Z,11.68
2023-02-25T13:35:30.344Z,7.50
2023-02-25T13:38:47.402Z,9.55
2023-02-25T13:41:18.929Z,9.05
2023-02-25T13:44:21.736Z,8.18
2023-02-25T13:46:53.197Z,10.13
2023-02-25T13:49:42.537Z,12.80
2023-02-25T13:53:00.340Z,11.63
2023-02-25T13:55:57.485Z,16.77
2023-02-25T13:58:45.083Z,16.48
2023-02-25T14:01:22.882Z,11.60
2023-02-25T14:04:09.167Z,7.82
2023-02-25T14:07:21.409Z,10.73
2023-02-25T14:10:01.056Z,11.73
2023-02-25T14:12:50.950Z,11.52
2023-02-25T14:15:53.152Z,14.27
2023-02-25T14:18:44.948Z,11.05
2023-02-25T14:21:34.200Z,17.77
2023-02-25T14:24:34.867Z,12.63
2023-02-25T14:27:14.984Z,10.77
2023-02-25T14:29:42.678Z,8.48
2023-02-25T14:32:19.317Z,9.00
2023-02-25T14:34:50.550Z,14.00
2023-02-25T14:37:32.716Z,9.05
2023-02-25T14:40:20.329Z,14.10
2023-02-25T14:43:08.526Z,12.00
2023-02-25T14:45:52.362Z,9.15
2023-02-25T14:48:58.315Z,12.95
2023-02-25T14:52:02.574Z,11.05
2023-02-25T14:55:08.021Z,13.77
2023-02-25T14:57:53.941Z,10.77
2023-02-25T15:00:38.637Z,8.82
2023-02-25T15:03:26.142Z,13.57
2023-02-25T15:06:09.472Z,9.52
2023-02-25T15:09:07.755Z,11.43
2023-02-25T15:12:02.608Z,15.10
2023-02-25T15:14:45.313Z,14.07
2023-02-25T15:17:19.201Z,17.60
2023-02-25T15:20:04.417Z,16.40
2023-02-25T15:22:33.001Z,14.60
2023-02-25T15:25:23.702Z,15.10
2023-02-25T15:28:00.194Z,15.93
2023-02-25T15:30:31.593Z,14.98
2023-02-25T15:33:17.626Z,18.15
2023-02-25T15:35:56.127Z,10.98
2023-02-25T15:38:41.430Z,12.80
2023-02-25T15:41:36.009Z,9.57
2023-02-25T15:44:18.195Z,12.25
2023-02-25T15:46:49.605Z,13.20
2023-02-25T15:49:31.423Z,9.50
2023-02-25T15:52:03.216Z,10.50
2023-02-25T15:54:31.495Z,10.82
2023-02-25T15:57:00.320Z,12.18
2023-02-25T15:59:55.909Z,12.52
2023-02-25T16:02:29.482Z,12.00
2023-02-25T16:05:25.158Z,14.73
2023-02-25T16:08:23.708Z,12.05
2023-02-25T16:10:54.620Z,9.65
2023-02-25T16:13:30.426Z,12.93
2023-02-25T16:15:58.154Z,9.68
2023-02-25T16:18:40.289Z,13.77
2023-02-25T16:21:21.816Z,9.88
2023-02-25T16:23:49.365Z,12.18
2023-02-25T16:26:58.482Z,11.00
2023-02-25T16:29:50.790Z,11.50
2023-02-25T16:32:26.100Z,12.38
2023-02-25T16:35:05.865Z,12.75
2023-02-25T16:37:46.777Z,12.25
2023-02-25T16:40:23.984Z,17.58
2023-02-25T16:42:52.566Z,11.40
2023-02-25T16:45:48.610Z,12.77
2023-02-25T16:48:18.706Z,9.43
2023-02-25T16:50:47.965Z,11.43
2023-02-25T16:53:22.074Z,11.10
2023-02-25T16:55:50.807Z,9.77
2023-02-25T16:58:27.793Z,12.23
2023-02-25T17:01:21.390Z,11.25
2023-02-25T17:03:48.744Z,11.88
2023-02-25T17:06:18.612Z,13.27
2023-02-25T17:08:47.797Z,13.88
2023-02-25T17:11:22.534Z,10.35
2023-02-25T17:13:51.940Z,13.93
2023-02-25T17:16:49.325Z,14.32
2023-02-25T17:19:20.585Z,19.25
2023-02-25T17:21:54.978Z,12.32
2023-02-25T17:24:27.820Z,11.13
2023-02-25T17:29:37.766Z,15.15
2023-02-25T17:32:35.421Z,14.25
2023-02-25T17:35:05.912Z,12.52
2023-02-25T17:37:34.200Z,11.82
2023-02-25T17:40:01.932Z,12.98
2023-02-25T17:42:35.935Z,11.68
2023-02-25T17:45:08.642Z,13.80
2023-02-25T17:47:38.157Z,9.23
2023-02-25T17:50:31.064Z,10.43
2023-02-25T17:53:01.414Z,7.90
2023-02-25T17:55:34.247Z,19.30
2023-02-25T18:00:35.020Z,16.83
2023-02-25T18:03:22.182Z,15.10
2023-02-25T18:05:56.586Z,15.32
2023-02-25T18:08:28.564Z,11.00
2023-02-25T18:11:29.935Z,9.83
2023-02-25T18:13:57.311Z,11.32
2023-02-25T18:16:41.629Z,13.73
2023-02-25T18:19:40.820Z,11.05
2023-02-25T18:22:24.049Z,9.27
2023-02-25T18:24:58.195Z,13.30
2023-02-25T18:27:32.424Z,10.90
2023-02-25T18:30:18.209Z,11.05
2023-02-25T18:32:47.743Z,12.35
2023-02-25T18:35:16.020Z,11.02
2023-02-25T18:37:47.173Z,14.25
2023-02-25T18:40:31.256Z,17.65
2023-02-25T18:42:59.695Z,12.10
2023-02-25T18:45:28.749Z,13.43
2023-02-25T18:47:57.115Z,16.13
2023-02-25T18:50:25.884Z,11.40
2023-02-25T18:52:54.408Z,14.95
2023-02-25T18:55:27.757Z,9.93
2023-02-25T18:57:55.892Z,13.77
2023-02-25T19:00:25.273Z,15.20
2023-02-25T19:03:01.474Z,14.52
2023-02-25T19:05:29.790Z,18.92
2023-02-25T19:07:57.260Z,12.52
2023-02-25T19:10:30.874Z,22.65
2023-02-25T19:13:04.972Z,13.25
2023-02-25T19:15:35.470Z,14.50
2023-02-25T19:18:02.782Z,11.55
2023-02-25T19:20:30.385Z,14.90
2023-02-25T19:23:00.716Z,15.75
2023-02-25T19:25:32.274Z,11.32
2023-02-25T19:27:59.782Z,20.98
2023-02-25T19:30:31.381Z,25.15
2023-02-25T19:33:03.547Z,20.42
2023-02-25T19:35:34.121Z,26.92
2023-02-25T19:38:01.777Z,29.13
2023-02-25T19:40:29.547Z,28.80
2023-02-25T19:42:57.563Z,19.23
2023-02-25T19:45:26.073Z,20.83
2023-02-25T19:47:55.456Z,28.73
2023-02-25T19:50:24.912Z,29.90
2023-02-25T19:52:56.326Z,24.50
2023-02-25T19:55:26.059Z,30.38
2023-02-25T19:57:54.287Z,27.50
2023-02-25T20:00:24.162Z,28.98
2023-02-25T20:02:53.894Z,44.63
2023-02-25T20:05:22.480Z,32.50
2023-02-25T20:07:50.706Z,25.77
2023-02-25T20:10:18.425Z,32.97
2023-02-25T20:12:47.280Z,25.45
2023-02-25T20:15:17.703Z,24.73
2023-02-25T20:17:46.644Z,23.17
2023-02-25T20:20:15.195Z,25.27
2023-02-25T20:22:42.797Z,24.33
2023-02-25T20:25:11.562Z,22.45
2023-02-25T20:27:41.532Z,20.08
2023-02-25T20:30:10.589Z,28.08
2023-02-25T20:32:38.062Z,28.35
2023-02-25T20:35:05.851Z,21.30
2023-02-25T20:37:35.710Z,20.90
2023-02-25T20:40:08.080Z,23.10
2023-02-25T20:42:35.657Z,23.23
2023-02-25T20:45:03.675Z,25.25
2023-02-25T20:47:36.156Z,23.05
2023-02-25T20:50:05.556Z,20.70
2023-02-25T20:52:34.316Z,20.98
2023-02-25T20:55:01.726Z,24.35
2023-02-25T20:57:29.142Z,31.30
2023-02-25T20:59:57.796Z,29.05
2023-02-25T21:02:25.231Z,23.50
2023-02-25T21:04:52.635Z,23.88
2023-02-25T21:07:21.263Z,24.25
2023-02-25T21:09:48.639Z,20.83
2023-02-25T21:12:16.173Z,20.35
2023-02-25T21:14:52.167Z,23.27
2023-02-25T21:17:19.732Z,27.85
2023-02-25T21:19:47.082Z,26.60
2023-02-25T21:22:14.535Z,20.67
2023-02-25T21:24:43.711Z,22.42
2023-02-25T21:27:12.031Z,18.70
2023-02-25T21:29:39.544Z,31.75
2023-02-25T21:32:07.045Z,18.85
2023-02-25T21:34:35.433Z,20.60
2023-02-25T21:37:14.416Z,26.40
2023-02-25T21:39:45.036Z,18.73
2023-02-25T21:42:12.894Z,27.02
2023-02-25T21:44:46.791Z,24.38
2023-02-25T21:47:16.426Z,25.83
2023-02-25T21:49:45.765Z,21.13
2023-02-25T21:52:14.041Z,24.60
2023-02-25T21:54:41.359Z,18.63
2023-02-25T21:57:08.953Z,21.70
2023-02-25T21:59:36.454Z,18.65
2023-02-25T22:02:06.688Z,20.15
2023-02-25T22:04:34.547Z,20.67
2023-02-25T22:07:02.368Z,19.35
2023-02-25T22:09:31.628Z,20.33
2023-02-25T22:11:59.864Z,21.33
2023-02-25T22:14:28.668Z,21.02
2023-02-25T22:16:59.189Z,16.52
2023-02-25T22:19:31.933Z,19.58
2023-02-25T22:22:00.641Z,21.08
2023-02-25T22:24:28.100Z,16.70
2023-02-25T22:27:03.504Z,19.80
2023-02-25T22:29:31.345Z,22.80
2023-02-25T22:31:59.340Z,20.98
2023-02-25T22:34:27.456Z,18.92
2023-02-25T22:36:55.017Z,21.02
2023-02-25T22:39:22.515Z,15.48
2023-02-25T22:41:50.196Z,13.77
2023-02-25T22:44:17.593Z,13.93
2023-02-25T22:46:45.093Z,19.38
2023-02-25T22:49:12.714Z,21.50
2023-02-25T22:51:42.904Z,18.85
2023-02-25T22:54:16.410Z,19.60
2023-02-25T22:56:45.604Z,14.90
2023-02-25T22:59:13.698Z,13.45
2023-02-25T23:01:41.377Z,14.73
2023-02-25T23:04:08.727Z,19.80
2023-02-25T23:06:45.177Z,13.85
2023-02-25T23:09:16.432Z,15.02
2023-02-25T23:11:45.695Z,16.63
2023-02-25T23:14:14.230Z,22.75
2023-02-25T23:16:43.888Z,13.50
2023-02-25T23:19:15.981Z,20.27
2023-02-25T23:21:44.012Z,13.60
2023-02-25T23:24:19.549Z,18.15
2023-02-25T23:26:51.880Z,18.25
2023-02-25T23:29:19.708Z,21.95
2023-02-25T23:31:48.381Z,13.95
2023-02-25T23:34:24.490Z,16.25
2023-02-25T23:36:55.816Z,17.58
2023-02-25T23:39:23.437Z,18.55
2023-02-25T23:41:50.973Z,14.85
2023-02-25T23:44:20.920Z,17.65
2023-02-25T23:46:48.291Z,11.73
2023-02-25T23:49:24.629Z,14.93
2023-02-25T23:51:54.693Z,12.50
2023-02-25T23:54:22.925Z,12.88
2023-02-25T23:56:51.205Z,16.45
2023-02-25T23:59:19.012Z,14.07
